Time;durP1;ratioP1;P1;durP2;ratioP2;P2;SDS_P1;SDS_P2;PMS_P1;PMS_P2;Temp;Humidity;BMP_temperature;BMP_pressure;BME280_temperature;BME280_humidity;BME280_pressure;Samples;Min_cycle;Max_cycle;Signal;HPM_P1;HPM_P2
2023/09/09 04:01:04;;;;;;;;;;;18.00;99.90;;;;;;5798306;22;20015;-80
2023/09/09 04:03:33;;;;;;;;;;;17.90;99.90;;;;;;5053850;28;20011;-80
2023/09/09 04:05:58;;;;;;;;;;;17.90;99.90;;;;;;5053999;28;19921;-81
2023/09/09 04:08:24;;;;;;;;;;;17.80;99.90;;;;;;5054217;28;19925;-81
2023/09/09 04:10:50;;;;;;;;;;;17.90;99.90;;;;;;5055254;28;19970;-81
2023/09/09 04:13:15;;;;;;;;;;;17.80;99.90;;;;;;5053763;28;19925;-81
2023/09/09 04:15:41;;;;;;;;;;;17.80;99.90;;;;;;5053710;28;20388;-81
2023/09/09 04:18:07;;;;;;;;;;;17.80;99.90;;;;;;5053137;28;19961;-81
2023/09/09 04:20:32;;;;;;;;;;;17.80;99.90;;;;;;5053626;28;19968;-81
2023/09/09 04:22:58;;;;;;;;;;;17.80;99.90;;;;;;5053933;28;19970;-82
2023/09/09 04:25:23;;;;;;;;;;;17.80;99.90;;;;;;5053637;28;19920;-83
2023/09/09 04:27:49;;;;;;;;;;;17.70;99.90;;;;;;5055094;28;19974;-82
2023/09/09 04:30:14;;;;;;;;;;;17.70;99.90;;;;;;5052313;28;19978;-81
2023/09/09 04:32:40;;;;;;;;;;;17.70;99.90;;;;;;5054972;28;19925;-82
2023/09/09 04:35:06;;;;;;;;;;;17.60;99.90;;;;;;5053462;28;20272;-81
2023/09/09 04:37:32;;;;;;;;;;;17.60;99.90;;;;;;5053317;28;19928;-82
2023/09/09 04:39:58;;;;;;;;;;;17.60;99.90;;;;;;5036785;28;19924;-83
2023/09/09 04:42:24;;;;;;;;;;;17.60;99.90;;;;;;5053203;28;19921;-82
2023/09/09 04:44:49;;;;;;;;;;;17.50;99.90;;;;;;5054466;28;20007;-81
2023/09/09 04:47:15;;;;;;;;;;;17.50;99.90;;;;;;5053588;28;19920;-82
2023/09/09 04:49:40;;;;;;;;;;;17.50;99.90;;;;;;5053777;28;20025;-82
2023/09/09 04:52:06;;;;;;;;;;;17.50;99.90;;;;;;5054467;28;19921;-82
2023/09/09 04:54:31;;;;;;;;;;;17.40;99.90;;;;;;5052997;28;19925;-82
2023/09/09 04:56:57;;;;;;;;;;;17.40;99.90;;;;;;5053366;28;20263;-82
2023/09/09 04:59:23;;;;;;;;;;;17.30;99.90;;;;;;5053030;28;20479;-83
2023/09/09 05:01:48;;;;;;;;;;;17.30;99.90;;;;;;5053983;28;19921;-81
2023/09/09 05:04:14;;;;;;;;;;;17.30;99.90;;;;;;5052958;28;20382;-81
2023/09/09 05:06:40;;;;;;;;;;;17.30;99.90;;;;;;5052615;28;19920;-82
2023/09/09 05:09:05;;;;;;;;;;;17.30;99.90;;;;;;5054511;28;19928;-81
2023/09/09 05:11:31;;;;;;;;;;;17.40;99.90;;;;;;5054166;28;19928;-80
2023/09/09 05:13:56;;;;;;;;;;;17.30;99.90;;;;;;5053929;28;19968;-81
2023/09/09 05:16:22;;;;;;;;;;;17.30;99.90;;;;;;5052712;28;19921;-81
2023/09/09 05:18:48;;;;;;;;;;;17.30;99.90;;;;;;5053757;28;19920;-80
2023/09/09 05:21:14;;;;;;;;;;;17.20;99.90;;;;;;5053286;28;19921;-82
2023/09/09 05:23:39;;;;;;;;;;;17.20;99.90;;;;;;5053822;28;19920;-81
2023/09/09 05:26:05;;;;;;;;;;;17.20;99.90;;;;;;5053892;28;19920;-82
2023/09/09 05:28:31;;;;;;;;;;;17.20;99.90;;;;;;5052734;28;19927;-82
2023/09/09 05:30:56;;;;;;;;;;;17.30;99.90;;;;;;5053767;28;20011;-81
2023/09/09 05:33:22;;;;;;;;;;;17.30;99.90;;;;;;5054168;28;19925;-81
2023/09/09 05:35:51;;;;;;;;;;;17.30;99.90;;;;;;5052589;28;19920;-81
2023/09/09 05:38:16;;;;;;;;;;;17.40;99.90;;;;;;5053840;28;20360;-82
2023/09/09 05:40:42;;;;;;;;;;;17.30;99.90;;;;;;5053692;28;20012;-81
2023/09/09 05:43:07;;;;;;;;;;;17.30;99.90;;;;;;5053794;28;19928;-81
2023/09/09 05:45:33;;;;;;;;;;;17.30;99.90;;;;;;5035847;28;20387;-81
2023/09/09 05:47:59;;;;;;;;;;;17.40;99.90;;;;;;5053611;28;19921;-82
2023/09/09 05:50:24;;;;;;;;;;;17.40;99.90;;;;;;5054160;28;19924;-81
2023/09/09 05:52:52;;;;;;;;;;;17.40;99.90;;;;;;5052072;28;20222;-81
2023/09/09 05:55:17;;;;;;;;;;;17.40;99.90;;;;;;5052407;28;19971;-82
2023/09/09 05:57:44;;;;;;;;;;;17.40;99.90;;;;;;5052326;28;19921;-82
2023/09/09 06:00:10;;;;;;;;;;;17.40;99.90;;;;;;5035701;28;20421;-82
2023/09/09 06:02:36;;;;;;;;;;;17.40;99.90;;;;;;5053310;28;19920;-81
2023/09/09 06:05:01;;;;;;;;;;;17.50;99.90;;;;;;5035620;28;20306;-81
2023/09/09 06:07:27;;;;;;;;;;;17.50;99.90;;;;;;5053821;28;19920;-83
2023/09/09 06:09:52;;;;;;;;;;;17.50;99.90;;;;;;5052164;28;19920;-82
2023/09/09 06:12:18;;;;;;;;;;;17.60;99.90;;;;;;5051932;28;19924;-81
2023/09/09 06:14:43;;;;;;;;;;;17.60;99.90;;;;;;5050960;28;19921;-81
2023/09/09 06:17:09;;;;;;;;;;;17.60;99.90;;;;;;5035784;28;20118;-81
2023/09/09 06:19:35;;;;;;;;;;;17.70;99.90;;;;;;5053595;28;19921;-82
2023/09/09 06:22:00;;;;;;;;;;;17.80;99.90;;;;;;5052068;28;19920;-82
2023/09/09 06:24:27;;;;;;;;;;;17.80;99.90;;;;;;5052692;28;19925;-81
2023/09/09 06:26:52;;;;;;;;;;;17.90;99.90;;;;;;5053613;28;20019;-80
2023/09/09 06:29:18;;;;;;;;;;;18.00;99.90;;;;;;5053297;28;20004;-82
2023/09/09 06:31:44;;;;;;;;;;;18.00;99.90;;;;;;5053411;28;19929;-80
2023/09/09 06:34:10;;;;;;;;;;;18.00;99.90;;;;;;5052404;28;19935;-82
2023/09/09 06:36:35;;;;;;;;;;;18.10;99.90;;;;;;5035443;28;20019;-83
2023/09/09 06:39:02;;;;;;;;;;;18.10;99.90;;;;;;5037378;28;20008;-83
2023/09/09 06:41:28;;;;;;;;;;;18.20;99.90;;;;;;5033480;28;20004;-83
2023/09/09 06:43:54;;;;;;;;;;;18.30;99.90;;;;;;5032177;28;20561;-81
2023/09/09 06:46:19;;;;;;;;;;;18.30;99.90;;;;;;5033461;28;19995;-81
2023/09/09 06:48:45;;;;;;;;;;;18.40;99.90;;;;;;5031959;28;19927;-82
2023/09/09 06:51:10;;;;;;;;;;;18.50;99.90;;;;;;5033320;28;19925;-81
2023/09/09 06:53:36;;;;;;;;;;;18.50;99.90;;;;;;5049398;28;20083;-81
2023/09/09 06:56:02;;;;;;;;;;;18.60;99.90;;;;;;5035625;28;19937;-80
2023/09/09 06:58:28;;;;;;;;;;;18.60;99.90;;;;;;5037007;28;19921;-80
2023/09/09 07:00:53;;;;;;;;;;;18.70;99.90;;;;;;5036761;28;19990;-80
2023/09/09 07:03:19;;;;;;;;;;;18.80;99.90;;;;;;5036143;28;20030;-79
2023/09/09 07:05:45;;;;;;;;;;;18.90;99.90;;;;;;5035796;28;19925;-80
2023/09/09 07:08:11;;;;;;;;;;;18.90;99.90;;;;;;5036782;28;19921;-81
2023/09/09 07:10:36;;;;;;;;;;;19.00;99.90;;;;;;5036348;28;19954;-81
2023/09/09 07:13:03;;;;;;;;;;;19.00;99.90;;;;;;5036719;28;19921;-80
2023/09/09 07:15:28;;;;;;;;;;;19.10;99.90;;;;;;5035220;28;19928;-80
2023/09/09 07:17:55;;;;;;;;;;;19.20;99.90;;;;;;5035075;28;20032;-81
2023/09/09 07:20:21;;;;;;;;;;;19.30;99.90;;;;;;5036638;28;19947;-80
2023/09/09 07:22:47;;;;;;;;;;;19.30;99.90;;;;;;5035084;28;19925;-81
2023/09/09 07:25:12;;;;;;;;;;;19.40;99.90;;;;;;5036458;28;19968;-80
2023/09/09 07:27:38;;;;;;;;;;;19.50;99.90;;;;;;5036482;28;19921;-80
2023/09/09 07:30:04;;;;;;;;;;;19.50;99.90;;;;;;5035161;28;19928;-81
2023/09/09 07:32:30;;;;;;;;;;;19.60;99.90;;;;;;5034746;28;20026;-82
2023/09/09 07:34:56;;;;;;;;;;;19.60;99.90;;;;;;5036260;28;19969;-80
2023/09/09 07:37:21;;;;;;;;;;;19.70;99.90;;;;;;5035652;28;19921;-80
2023/09/09 07:39:49;;;;;;;;;;;19.80;99.90;;;;;;5035044;28;19921;-80
2023/09/09 07:42:15;;;;;;;;;;;19.90;99.90;;;;;;5036140;28;19928;-82
2023/09/09 07:44:41;;;;;;;;;;;19.80;99.90;;;;;;5034906;28;20078;-81
2023/09/09 07:47:08;;;;;;;;;;;19.90;99.90;;;;;;5034591;28;19921;-81
2023/09/09 07:49:33;;;;;;;;;;;20.00;99.90;;;;;;5051451;28;20292;-81
2023/09/09 07:51:59;;;;;;;;;;;20.00;99.90;;;;;;5034302;28;19932;-80
2023/09/09 07:54:25;;;;;;;;;;;20.10;99.90;;;;;;5035094;28;19940;-79
2023/09/09 07:56:50;;;;;;;;;;;20.20;99.90;;;;;;5034679;28;19922;-82
2023/09/09 07:59:16;;;;;;;;;;;20.30;99.90;;;;;;5034673;28;20242;-80
2023/09/09 08:01:42;;;;;;;;;;;20.40;99.90;;;;;;5034053;28;19921;-81
2023/09/09 08:04:07;;;;;;;;;;;20.40;99.90;;;;;;5033983;28;19971;-80
2023/09/09 08:06:33;;;;;;;;;;;20.40;99.90;;;;;;5034336;28;20353;-79
2023/09/09 08:08:58;;;;;;;;;;;20.50;99.90;;;;;;5035513;28;19921;-80
2023/09/09 08:11:24;;;;;;;;;;;20.60;99.90;;;;;;5035540;28;19929;-80
2023/09/09 08:13:49;;;;;;;;;;;20.70;99.90;;;;;;5034121;28;19974;-79
2023/09/09 08:16:15;;;;;;;;;;;20.80;99.90;;;;;;5034163;28;19969;-80
2023/09/09 08:18:41;;;;;;;;;;;20.90;99.90;;;;;;5034268;28;20364;-80
2023/09/09 08:21:08;;;;;;;;;;;21.00;99.90;;;;;;5035446;28;19921;-80
2023/09/09 08:23:34;;;;;;;;;;;21.10;99.90;;;;;;5034223;28;20024;-81
2023/09/09 08:25:59;;;;;;;;;;;21.20;99.90;;;;;;5035306;28;20004;-81
2023/09/09 08:28:26;;;;;;;;;;;21.20;99.90;;;;;;5034078;28;19921;-82
2023/09/09 08:30:56;;;;;;;;;;;21.30;99.90;;;;;;5034407;28;20262;-80
2023/09/09 08:33:22;;;;;;;;;;;21.40;99.90;;;;;;5037558;28;19975;-79
2023/09/09 08:35:47;;;;;;;;;;;21.50;99.90;;;;;;5052961;28;20322;-79
2023/09/09 08:38:13;;;;;;;;;;;21.60;99.90;;;;;;5053848;28;19921;-79
2023/09/09 08:40:45;;;;;;;;;;;21.60;99.90;;;;;;5053394;28;19921;-81
2023/09/09 08:43:40;;;;;;;;;;;21.70;99.90;;;;;;5054851;28;20255;-80
2023/09/09 08:46:05;;;;;;;;;;;21.80;99.90;;;;;;5040557;28;19989;-81
2023/09/09 08:48:32;;;;;;;;;;;21.90;99.90;;;;;;5037100;28;20424;-80
2023/09/09 08:51:00;;;;;;;;;;;22.00;99.90;;;;;;5053009;28;19924;-79
2023/09/09 08:53:26;;;;;;;;;;;22.10;99.90;;;;;;5037225;28;20479;-81
2023/09/09 08:55:52;;;;;;;;;;;22.20;99.90;;;;;;5054500;28;19928;-80
2023/09/09 08:58:18;;;;;;;;;;;22.30;99.90;;;;;;5053567;28;19921;-81
2023/09/09 09:00:43;;;;;;;;;;;22.40;99.90;;;;;;5053029;28;19921;-78
2023/09/09 09:03:11;;;;;;;;;;;22.50;99.90;;;;;;5053186;28;20288;-79
2023/09/09 09:05:38;;;;;;;;;;;22.70;99.90;;;;;;5053150;28;19929;-80
2023/09/09 09:08:04;;;;;;;;;;;22.80;99.90;;;;;;5053479;28;20268;-78
2023/09/09 09:10:30;;;;;;;;;;;22.90;99.90;;;;;;5053001;28;19925;-80
2023/09/09 09:12:55;;;;;;;;;;;23.00;99.90;;;;;;5053210;28;19975;-80
2023/09/09 09:15:21;;;;;;;;;;;23.10;99.90;;;;;;5053213;28;20016;-78
2023/09/09 09:17:47;;;;;;;;;;;23.20;99.90;;;;;;5052591;28;20276;-80
2023/09/09 09:20:26;;;;;;;;;;;23.30;99.90;;;;;;5052800;28;19920;-78
2023/09/09 09:22:56;;;;;;;;;;;23.40;99.90;;;;;;5053124;28;20015;-78
2023/09/09 09:25:21;;;;;;;;;;;23.50;99.90;;;;;;5052787;28;19967;-80
2023/09/09 09:27:47;;;;;;;;;;;23.70;99.90;;;;;;5052629;28;19921;-78
2023/09/09 09:30:13;;;;;;;;;;;23.70;99.90;;;;;;5052672;28;19921;-80
2023/09/09 09:32:42;;;;;;;;;;;23.90;99.90;;;;;;5053279;28;19979;-80
2023/09/09 09:35:27;;;;;;;;;;;23.90;99.90;;;;;;5053211;28;19959;-79
2023/09/09 09:37:53;;;;;;;;;;;24.10;99.90;;;;;;5052585;28;19921;-77
2023/09/09 09:40:18;;;;;;;;;;;24.20;99.90;;;;;;5052611;28;20035;-79
2023/09/09 09:42:44;;;;;;;;;;;24.30;99.90;;;;;;5052866;28;19925;-78
2023/09/09 09:45:10;;;;;;;;;;;24.40;99.90;;;;;;5053348;28;19920;-78
2023/09/09 09:47:48;;;;;;;;;;;24.50;99.90;;;;;;5052617;28;19924;-78
2023/09/09 09:50:22;;;;;;;;;;;24.60;99.90;;;;;;5052716;28;19996;-79
2023/09/09 09:52:48;;;;;;;;;;;24.70;99.90;;;;;;5052689;28;19975;-81
2023/09/09 09:55:17;;;;;;;;;;;24.80;99.90;;;;;;5052574;28;19921;-78
2023/09/09 09:57:46;;;;;;;;;;;24.80;99.90;;;;;;5048079;28;19928;-79
2023/09/09 10:00:15;;;;;;;;;;;24.90;99.90;;;;;;5046931;28;19921;-80
2023/09/09 10:02:41;;;;;;;;;;;25.00;99.90;;;;;;5052478;28;20022;-80
2023/09/09 10:05:10;;;;;;;;;;;25.10;99.90;;;;;;5053150;28;19920;-78
2023/09/09 10:07:36;;;;;;;;;;;25.10;99.90;;;;;;5052530;28;20368;-79
2023/09/09 10:10:07;;;;;;;;;;;25.20;99.90;;;;;;5052581;28;19941;-80
2023/09/09 10:12:35;;;;;;;;;;;25.20;99.90;;;;;;5052140;28;19924;-77
2023/09/09 10:15:02;;;;;;;;;;;25.30;99.90;;;;;;5052238;28;20415;-80
2023/09/09 10:17:28;;;;;;;;;;;25.50;99.90;;;;;;5035827;28;19967;-75
2023/09/09 10:19:54;;;;;;;;;;;25.50;99.90;;;;;;5053703;28;19921;-75
2023/09/09 10:22:20;;;;;;;;;;;25.60;99.90;;;;;;5053551;28;20019;-75
2023/09/09 10:24:46;;;;;;;;;;;25.70;99.90;;;;;;5052093;28;20007;-76
2023/09/09 10:27:11;;;;;;;;;;;25.80;99.90;;;;;;5052375;28;19921;-75
2023/09/09 10:29:37;;;;;;;;;;;25.90;99.90;;;;;;5056353;28;19928;-73
2023/09/09 10:32:04;;;;;;;;;;;25.90;99.90;;;;;;5056830;28;20028;-76
2023/09/09 10:34:31;;;;;;;;;;;25.90;99.90;;;;;;5056893;28;20242;-75
2023/09/09 10:36:58;;;;;;;;;;;26.00;99.90;;;;;;5056026;28;20035;-75
2023/09/09 10:39:24;;;;;;;;;;;26.10;99.90;;;;;;5055977;28;19921;-75
2023/09/09 10:41:50;;;;;;;;;;;26.10;99.90;;;;;;5055698;28;19920;-76
2023/09/09 10:44:16;;;;;;;;;;;26.10;99.90;;;;;;5055974;28;20292;-75
2023/09/09 10:46:41;;;;;;;;;;;26.30;99.90;;;;;;5056100;28;20006;-75
2023/09/09 10:49:07;;;;;;;;;;;26.30;99.90;;;;;;5055779;28;19927;-75
2023/09/09 10:51:45;;;;;;;;;;;26.30;99.90;;;;;;5055969;28;19924;-76
2023/09/09 10:54:12;;;;;;;;;;;26.40;99.90;;;;;;5055982;28;19920;-76
2023/09/09 10:56:48;;;;;;;;;;;26.60;99.90;;;;;;5055646;28;19921;-76
2023/09/09 10:59:20;;;;;;;;;;;26.70;99.90;;;;;;5055714;28;19927;-76
2023/09/09 11:01:46;;;;;;;;;;;26.80;99.90;;;;;;5054661;28;19970;-76
2023/09/09 11:04:19;;;;;;;;;;;26.90;99.90;;;;;;5038314;28;19936;-76
2023/09/09 11:06:58;;;;;;;;;;;26.80;99.90;;;;;;5039194;28;20418;-75
2023/09/09 11:09:28;;;;;;;;;;;26.90;99.90;;;;;;5055792;28;19928;-75
2023/09/09 11:11:54;;;;;;;;;;;27.00;99.90;;;;;;5056706;28;19925;-75
2023/09/09 11:14:20;;;;;;;;;;;27.00;99.90;;;;;;5055967;28;19924;-75
2023/09/09 11:16:48;;;;;;;;;;;27.00;99.90;;;;;;5055310;28;19936;-75
2023/09/09 11:19:16;;;;;;;;;;;27.00;99.90;;;;;;5055786;28;19966;-75
2023/09/09 11:21:46;;;;;;;;;;;27.00;99.90;;;;;;5055721;28;20319;-75
2023/09/09 11:24:12;;;;;;;;;;;27.00;99.90;;;;;;5055389;28;20322;-75
2023/09/09 11:26:38;;;;;;;;;;;27.10;99.90;;;;;;5055386;28;19921;-76
2023/09/09 11:29:04;;;;;;;;;;;27.10;99.90;;;;;;5055452;28;20376;-75
2023/09/09 11:31:30;;;;;;;;;;;27.00;99.90;;;;;;5056912;28;19931;-75
2023/09/09 11:33:56;;;;;;;;;;;27.10;99.90;;;;;;5055862;28;19921;-75
2023/09/09 11:36:22;;;;;;;;;;;27.20;99.90;;;;;;5054840;28;19921;-75
2023/09/09 11:38:47;;;;;;;;;;;27.30;99.90;;;;;;5055713;28;20288;-76
2023/09/09 11:41:20;;;;;;;;;;;27.30;99.90;;;;;;5054430;28;19959;-75
2023/09/09 11:43:56;;;;;;;;;;;27.40;99.90;;;;;;5054659;28;19924;-76
2023/09/09 11:46:21;;;;;;;;;;;27.40;99.90;;;;;;5046661;28;19933;-76
2023/09/09 11:48:47;;;;;;;;;;;27.40;99.90;;;;;;5034670;28;20062;-76
2023/09/09 11:51:13;;;;;;;;;;;27.50;99.90;;;;;;5035713;28;20008;-77
2023/09/09 11:53:39;;;;;;;;;;;27.60;99.90;;;;;;5034601;28;19925;-77
2023/09/09 11:56:04;;;;;;;;;;;27.70;99.90;;;;;;5036611;28;19925;-76
2023/09/09 11:58:40;;;;;;;;;;;27.60;99.90;;;;;;5034517;28;19921;-76
2023/09/09 12:01:05;;;;;;;;;;;27.60;99.90;;;;;;5034546;28;20265;-76
2023/09/09 12:03:31;;;;;;;;;;;27.60;99.90;;;;;;5034638;28;19951;-76
2023/09/09 12:05:57;;;;;;;;;;;27.80;99.90;;;;;;5035892;28;19928;-75
2023/09/09 12:08:23;;;;;;;;;;;27.80;99.90;;;;;;5034322;28;19928;-75
2023/09/09 12:10:49;;;;;;;;;;;27.70;99.90;;;;;;5034378;28;19932;-77
2023/09/09 12:13:15;;;;;;;;;;;27.60;99.90;;;;;;5034279;28;19925;-76
2023/09/09 12:15:42;;;;;;;;;;;27.70;99.90;;;;;;5034531;28;19921;-75
2023/09/09 12:18:08;;;;;;;;;;;27.70;99.90;;;;;;5035319;28;19921;-76
2023/09/09 12:20:34;;;;;;;;;;;27.70;99.90;;;;;;5033987;28;19925;-76
2023/09/09 12:22:59;;;;;;;;;;;27.80;99.90;;;;;;5033983;28;19932;-76
2023/09/09 12:25:35;;;;;;;;;;;28.00;99.90;;;;;;5033941;28;19921;-76
2023/09/09 12:28:01;;;;;;;;;;;28.10;99.90;;;;;;5034268;28;20281;-76
2023/09/09 12:30:34;;;;;;;;;;;28.00;99.90;;;;;;5033757;28;19921;-76
2023/09/09 12:33:04;;;;;;;;;;;28.00;99.90;;;;;;5033769;28;19921;-76
2023/09/09 12:35:32;;;;;;;;;;;27.90;99.90;;;;;;5033734;28;19921;-76
2023/09/09 12:37:57;;;;;;;;;;;28.00;99.90;;;;;;5033957;28;20368;-77
2023/09/09 12:40:23;;;;;;;;;;;27.80;99.90;;;;;;5033513;28;20004;-76
2023/09/09 12:42:49;;;;;;;;;;;27.80;99.90;;;;;;5050771;28;19921;-76
2023/09/09 12:45:14;;;;;;;;;;;27.90;99.90;;;;;;5033658;28;19928;-77
2023/09/09 12:47:40;;;;;;;;;;;27.90;99.90;;;;;;5033599;28;20004;-77
2023/09/09 12:50:05;;;;;;;;;;;27.90;99.90;;;;;;5033475;28;19987;-77
2023/09/09 12:52:31;;;;;;;;;;;28.00;99.90;;;;;;5032371;28;19925;-76
2023/09/09 12:54:57;;;;;;;;;;;28.00;99.90;;;;;;5034945;28;19921;-77
2023/09/09 12:57:22;;;;;;;;;;;27.90;99.90;;;;;;5033380;28;19921;-77
2023/09/09 12:59:48;;;;;;;;;;;27.80;99.90;;;;;;5033684;28;20295;-77
2023/09/09 13:02:14;;;;;;;;;;;27.90;99.90;;;;;;5034414;28;20382;-77
2023/09/09 13:04:39;;;;;;;;;;;27.90;99.90;;;;;;5033252;28;19970;-78
2023/09/09 13:07:05;;;;;;;;;;;27.90;99.90;;;;;;5033193;28;20004;-77
2023/09/09 13:09:31;;;;;;;;;;;27.90;99.90;;;;;;5034752;28;20006;-77
2023/09/09 13:11:57;;;;;;;;;;;28.00;99.90;;;;;;5033078;28;19992;-77
2023/09/09 13:14:22;;;;;;;;;;;28.10;99.90;;;;;;5032323;28;20401;-77
2023/09/09 13:16:49;;;;;;;;;;;28.20;99.90;;;;;;5034440;28;20304;-77
2023/09/09 13:19:16;;;;;;;;;;;28.10;99.90;;;;;;5033055;28;20015;-76
2023/09/09 13:21:41;;;;;;;;;;;28.20;99.90;;;;;;5032907;28;19921;-76
2023/09/09 13:24:07;;;;;;;;;;;28.20;99.90;;;;;;5032970;28;19928;-76
2023/09/09 13:26:32;;;;;;;;;;;28.10;99.90;;;;;;5032953;28;20232;-76
2023/09/09 13:28:58;;;;;;;;;;;28.10;99.90;;;;;;5032875;28;19984;-76
2023/09/09 13:31:23;;;;;;;;;;;28.20;99.90;;;;;;5032847;28;20322;-76
2023/09/09 13:33:49;;;;;;;;;;;28.30;99.90;;;;;;5034298;28;20016;-76
2023/09/09 13:36:14;;;;;;;;;;;28.30;99.90;;;;;;5033240;28;19925;-77
2023/09/09 13:38:40;;;;;;;;;;;28.10;99.90;;;;;;5034227;28;19922;-76
2023/09/09 13:41:05;;;;;;;;;;;28.00;99.90;;;;;;5016666;28;20288;-76
2023/09/09 13:43:31;;;;;;;;;;;28.00;99.90;;;;;;5032990;28;19921;-77
2023/09/09 13:45:56;;;;;;;;;;;28.10;99.90;;;;;;5032593;28;19971;-76
2023/09/09 13:48:22;;;;;;;;;;;28.10;99.90;;;;;;5032600;28;19925;-77
2023/09/09 13:50:48;;;;;;;;;;;28.20;99.90;;;;;;5033673;28;19925;-77
2023/09/09 13:53:14;;;;;;;;;;;28.20;99.90;;;;;;5032536;28;19928;-77
2023/09/09 13:55:39;;;;;;;;;;;28.10;99.90;;;;;;5032566;28;19925;-77
2023/09/09 13:58:05;;;;;;;;;;;28.00;99.90;;;;;;5032837;28;20331;-76
2023/09/09 14:00:32;;;;;;;;;;;28.00;99.90;;;;;;5032579;28;19921;-77
2023/09/09 14:02:57;;;;;;;;;;;27.90;99.90;;;;;;5032281;28;19921;-77
2023/09/09 14:05:23;;;;;;;;;;;27.90;99.90;;;;;;5032736;28;19967;-76
2023/09/09 14:07:48;;;;;;;;;;;28.00;99.90;;;;;;5034232;28;20280;-77
2023/09/09 14:10:14;;;;;;;;;;;28.00;99.90;;;;;;5032379;28;19928;-77
2023/09/09 14:12:41;;;;;;;;;;;28.10;99.90;;;;;;5033750;28;19947;-78
2023/09/09 14:15:08;;;;;;;;;;;28.00;99.90;;;;;;5032351;28;19921;-77
2023/09/09 14:17:33;;;;;;;;;;;28.10;99.90;;;;;;5032358;28;20266;-77
2023/09/09 14:19:59;;;;;;;;;;;28.10;99.90;;;;;;5034077;28;20004;-77
2023/09/09 14:22:24;;;;;;;;;;;28.00;99.90;;;;;;5032165;28;20300;-76
2023/09/09 14:24:50;;;;;;;;;;;28.00;99.90;;;;;;5032257;28;19922;-78
2023/09/09 14:27:15;;;;;;;;;;;28.00;99.90;;;;;;5032197;28;19971;-78
2023/09/09 14:29:41;;;;;;;;;;;27.90;99.90;;;;;;5032269;28;19929;-77
2023/09/09 14:32:07;;;;;;;;;;;27.90;99.90;;;;;;5033633;28;19925;-77
2023/09/09 14:34:32;;;;;;;;;;;27.80;99.90;;;;;;5032428;28;19921;-77
2023/09/09 14:36:58;;;;;;;;;;;27.80;99.90;;;;;;5032099;28;19921;-76
2023/09/09 14:39:23;;;;;;;;;;;27.80;99.90;;;;;;5032148;28;19921;-77
2023/09/09 14:41:52;;;;;;;;;;;28.00;99.90;;;;;;5031989;28;19944;-77
2023/09/09 14:44:17;;;;;;;;;;;27.90;99.90;;;;;;5032057;28;19921;-77
2023/09/09 14:46:43;;;;;;;;;;;27.90;99.90;;;;;;5031987;28;19921;-77
2023/09/09 14:49:08;;;;;;;;;;;27.90;99.90;;;;;;5033507;28;19928;-76
2023/09/09 14:51:34;;;;;;;;;;;27.90;99.90;;;;;;5032045;28;20306;-77
2023/09/09 14:54:04;;;;;;;;;;;27.90;99.90;;;;;;5032275;28;19921;-75
2023/09/09 14:56:30;;;;;;;;;;;27.90;99.90;;;;;;5031999;28;19968;-77
2023/09/09 14:58:56;;;;;;;;;;;27.90;99.90;;;;;;5033753;28;19929;-76
2023/09/09 15:01:22;;;;;;;;;;;27.90;99.90;;;;;;5041703;28;19944;-76
2023/09/09 15:03:47;;;;;;;;;;;27.90;99.90;;;;;;5042913;28;20360;-77
2023/09/09 15:06:13;;;;;;;;;;;27.90;99.90;;;;;;5024214;28;19928;-76
2023/09/09 15:08:39;;;;;;;;;;;27.80;99.90;;;;;;5038590;28;19921;-76
2023/09/09 15:11:04;;;;;;;;;;;27.90;99.90;;;;;;5045340;28;19925;-76
2023/09/09 15:13:30;;;;;;;;;;;27.90;99.90;;;;;;5036982;28;19921;-76
2023/09/09 15:16:01;;;;;;;;;;;27.80;99.90;;;;;;5052178;28;19960;-83
2023/09/09 15:18:27;;;;;;;;;;;27.80;99.90;;;;;;5045931;28;20020;-75
2023/09/09 15:20:52;;;;;;;;;;;27.80;99.90;;;;;;5048581;28;20412;-75
2023/09/09 15:23:18;;;;;;;;;;;27.70;99.90;;;;;;5046284;28;19929;-75
2023/09/09 15:25:44;;;;;;;;;;;27.70;99.90;;;;;;5043535;28;20008;-75
2023/09/09 15:28:15;;;;;;;;;;;27.70;99.90;;;;;;5044935;28;20371;-75
2023/09/09 15:30:41;;;;;;;;;;;27.80;99.90;;;;;;5047977;28;19936;-75
2023/09/09 15:33:06;;;;;;;;;;;27.80;99.90;;;;;;5047462;28;19925;-75
2023/09/09 15:35:32;;;;;;;;;;;27.80;99.90;;;;;;5048303;28;20396;-75
2023/09/09 15:37:57;;;;;;;;;;;27.80;99.90;;;;;;5048708;28;19943;-75
2023/09/09 15:40:23;;;;;;;;;;;27.80;99.90;;;;;;5045680;28;19976;-75
2023/09/09 15:42:48;;;;;;;;;;;27.80;99.90;;;;;;5049228;28;19921;-75
2023/09/09 15:45:14;;;;;;;;;;;27.90;99.90;;;;;;5045012;28;19927;-75
2023/09/09 15:47:39;;;;;;;;;;;27.80;99.90;;;;;;5054659;28;20288;-73
2023/09/09 15:50:05;;;;;;;;;;;27.80;99.90;;;;;;5055816;28;20137;-75
2023/09/09 15:52:31;;;;;;;;;;;27.70;99.90;;;;;;5054447;28;19924;-75
2023/09/09 15:54:56;;;;;;;;;;;27.70;99.90;;;;;;5037924;28;20425;-75
2023/09/09 15:57:22;;;;;;;;;;;27.60;99.90;;;;;;5054446;28;20012;-75
2023/09/09 15:59:48;;;;;;;;;;;27.50;99.90;;;;;;5055779;28;20012;-75
2023/09/09 16:02:14;;;;;;;;;;;27.60;99.90;;;;;;5045399;28;20276;-75
2023/09/09 16:04:39;;;;;;;;;;;27.50;99.90;;;;;;5035471;28;19951;-74
2023/09/09 16:07:05;;;;;;;;;;;27.50;99.90;;;;;;5035602;28;19925;-74
2023/09/09 16:09:30;;;;;;;;;;;27.40;99.90;;;;;;5034272;28;20000;-74
2023/09/09 16:11:56;;;;;;;;;;;27.40;99.90;;;;;;5035441;28;19956;-74
2023/09/09 16:14:21;;;;;;;;;;;27.40;99.90;;;;;;5034470;28;19944;-75
2023/09/09 16:16:47;;;;;;;;;;;27.30;99.90;;;;;;5035992;28;20377;-74
2023/09/09 16:19:14;;;;;;;;;;;27.20;99.90;;;;;;5034213;28;19928;-74
2023/09/09 16:21:40;;;;;;;;;;;27.10;99.90;;;;;;5035532;28;20285;-75
2023/09/09 16:24:08;;;;;;;;;;;27.00;99.90;;;;;;5034127;28;19928;-75
2023/09/09 16:26:34;;;;;;;;;;;26.90;99.90;;;;;;5035402;28;19970;-75
2023/09/09 16:29:00;;;;;;;;;;;26.80;99.90;;;;;;5034520;28;19924;-75
2023/09/09 16:31:26;;;;;;;;;;;26.70;99.90;;;;;;5053812;28;20427;-75
2023/09/09 16:33:51;;;;;;;;;;;26.70;99.90;;;;;;5036596;28;19921;-75
2023/09/09 16:36:17;;;;;;;;;;;26.60;99.90;;;;;;5034045;28;19944;-75
2023/09/09 16:38:42;;;;;;;;;;;26.50;99.90;;;;;;5042375;28;20293;-74
2023/09/09 16:41:08;;;;;;;;;;;26.40;99.90;;;;;;5053863;28;19921;-74
2023/09/09 16:43:35;;;;;;;;;;;26.40;99.90;;;;;;5053503;28;20390;-74
2023/09/09 16:46:01;;;;;;;;;;;26.30;99.90;;;;;;5053770;28;19920;-74
2023/09/09 16:48:26;;;;;;;;;;;26.30;99.90;;;;;;5053769;28;19927;-74
2023/09/09 16:50:52;;;;;;;;;;;26.20;99.90;;;;;;5053231;28;19924;-75
2023/09/09 16:53:17;;;;;;;;;;;26.10;99.90;;;;;;5053927;28;19925;-74
2023/09/09 16:55:44;;;;;;;;;;;26.10;99.90;;;;;;5053616;28;19975;-72
2023/09/09 16:58:09;;;;;;;;;;;26.00;99.90;;;;;;5052603;28;19921;-75
2023/09/09 17:00:35;;;;;;;;;;;26.00;99.90;;;;;;5038345;28;19925;-74
2023/09/09 17:03:00;;;;;;;;;;;26.00;99.90;;;;;;5053259;28;19944;-76
2023/09/09 17:05:26;;;;;;;;;;;25.90;99.90;;;;;;5053098;28;19925;-76
2023/09/09 17:07:51;;;;;;;;;;;25.90;99.90;;;;;;5053024;28;19921;-77
2023/09/09 17:10:17;;;;;;;;;;;25.80;99.90;;;;;;5053232;28;19921;-77
2023/09/09 17:12:43;;;;;;;;;;;25.80;99.90;;;;;;5052830;28;20368;-77
2023/09/09 17:15:09;;;;;;;;;;;25.60;99.90;;;;;;5053152;28;20330;-76
2023/09/09 17:17:35;;;;;;;;;;;25.50;99.90;;;;;;5053420;28;19925;-77
2023/09/09 17:20:00;;;;;;;;;;;25.50;99.90;;;;;;5052809;28;19928;-76
2023/09/09 17:22:26;;;;;;;;;;;25.50;99.90;;;;;;5054206;28;19964;-76
2023/09/09 17:24:51;;;;;;;;;;;25.40;99.90;;;;;;5054264;28;19924;-76
2023/09/09 17:27:17;;;;;;;;;;;25.30;99.90;;;;;;5052669;28;19921;-76
2023/09/09 17:29:42;;;;;;;;;;;25.30;99.90;;;;;;5054200;28;19920;-77
2023/09/09 17:32:08;;;;;;;;;;;25.20;99.90;;;;;;5035874;28;19964;-77
2023/09/09 17:34:41;;;;;;;;;;;25.10;99.90;;;;;;5053671;28;19967;-76
2023/09/09 17:37:06;;;;;;;;;;;25.00;99.90;;;;;;5052058;28;19921;-76
2023/09/09 17:39:32;;;;;;;;;;;25.00;99.90;;;;;;5052529;28;19928;-76
2023/09/09 17:41:57;;;;;;;;;;;24.90;99.90;;;;;;5052734;28;19921;-76
2023/09/09 17:44:23;;;;;;;;;;;24.90;99.90;;;;;;5052781;28;20387;-76
2023/09/09 17:46:50;;;;;;;;;;;24.80;99.90;;;;;;5053712;28;19920;-76
2023/09/09 17:49:16;;;;;;;;;;;24.80;99.90;;;;;;5052374;28;20399;-76
2023/09/09 17:51:42;;;;;;;;;;;24.70;99.90;;;;;;5053508;28;19932;-76
2023/09/09 17:54:07;;;;;;;;;;;24.60;99.90;;;;;;5053816;28;19921;-76
2023/09/09 17:56:33;;;;;;;;;;;24.50;99.90;;;;;;5052265;28;19932;-77
2023/09/09 17:58:59;;;;;;;;;;;24.50;99.90;;;;;;5052233;28;19928;-76
2023/09/09 18:01:25;;;;;;;;;;;24.40;99.90;;;;;;5052144;28;19921;-76
2023/09/09 18:03:51;;;;;;;;;;;24.30;99.90;;;;;;5052531;28;19920;-76
2023/09/09 18:06:20;;;;;;;;;;;24.30;99.90;;;;;;5053423;28;19928;-76
2023/09/09 18:08:47;;;;;;;;;;;24.30;99.90;;;;;;5035527;28;19925;-76
2023/09/09 18:11:13;;;;;;;;;;;24.30;99.90;;;;;;5052049;28;19939;-76